Latest Coastal Weather Observations for Roebourne Airport

IDW60701

Issued at 2:32 pm WST Saturday 25 April 2015 (issued every 10 minutes, with the page automatically refreshed every 10 minutes)

About coastal observations | Map of coastal stations | Coastal observations for WA | Marine services | Other Formats
Station Details ID: 004090 Name: ROEBOURNE AERO Lat: -20.76 Lon: 117.16 Height: 10.7 m
Data from the previous 72 hours. | See also: Recent months at Roebourne Airport
Date/Time
WST
Temp

°C
Wind Pressure Rain
since 9am
mm
Weather Cloud Vis
km
Sea
Height
m
Swell
Dir
 
Speed
knots
Gust
knots
hPa Trend Height
m
Period
s
Dir
25/02:30pm 30.5 E 17 22 1012.5 - 0.0 - - - - - - -
25/02:00pm 30.6 E 17 25 1012.7 - 0.0 - - - - - - -
25/01:30pm 30.7 E 17 24 1012.9 - 0.0 - - - - - - -
25/01:00pm 29.8 E 18 26 1013.4 - 0.0 - - - - - - -
25/12:30pm 30.1 E 20 27 1013.6 - 0.0 - - - - - - -
25/12:00pm 29.7 E 19 27 1013.9 - 0.0 - - - - - - -
25/11:53am 29.8 E 19 29 1013.8 - 0.0 - - - - - - -
25/11:30am 28.8 E 21 28 1014.0 - 0.0 - - - - - - -
25/11:00am 28.6 E 21 27 1014.5 - 0.0 - - - - - - -
25/10:30am 28.4 E 21 27 1014.8 - 0.0 - - - - - - -
25/10:00am 26.9 E 21 29 1015.1 - 0.0 - - - - - - -
25/09:30am 26.5 E 22 28 1015.2 - 0.0 - - - - - - -
25/09:00am 26.0 E 22 29 1015.0 - 0.0 - - - - - - -
25/08:30am 25.4 ESE 18 24 1014.9 - 0.0 - - - - - - -
25/08:00am 23.8 ESE 16 21 1014.6 - 0.0 - - - - - - -
25/07:30am 22.8 E 13 18 1014.3 - 0.0 - - - - - - -
25/07:00am 22.6 E 13 17 1014.0 - 0.0 - - - - - - -
25/06:30am 22.8 E 13 18 1013.7 - 0.0 - - - - - - -
25/06:00am 22.8 E 13 18 1013.1 - 0.0 - - - - - - -
25/05:30am 22.9 ESE 14 18 1012.9 - 0.0 - - - - - - -
25/05:00am 23.1 ESE 13 17 1012.6 - 0.0 - - - - - - -
25/04:30am 23.6 ESE 13 18 1012.6 - 0.0 - - - - - - -
25/04:00am 24.1 ESE 14 18 1012.6 - 0.0 - - - - - - -
25/03:30am 24.2 ESE 13 16 1012.5 - 0.0 - - - - - - -
25/03:00am 24.1 ESE 12 17 1012.6 - 0.0 - - - - - - -
25/02:30am 24.3 ESE 10 14 1012.7 - 0.0 - - - - - - -
25/02:00am 24.5 ESE 11 14 1012.7 - 0.0 - - - - - - -
25/01:30am 24.8 ESE 10 12 1012.8 - 0.0 - - - - - - -
25/01:00am 24.7 ESE 10 12 1013.1 - 0.0 - - - - - - -
25/12:30am 24.2 ESE 8 10 1013.3 - 0.0 - - - - - - -
25/12:00am 24.0 ESE 9 11 1013.4 - 0.0 - - - - - - -
 
Date/Time
WST
Temp

°C
Wind Pressure Rain
since 9am
mm
Weather Cloud Vis
km
Sea
Height
m
Swell
Dir
 
Speed
knots
Gust
knots
hPa Trend Height
m
Period
s
Dir
24/11:30pm 24.4 ESE 9 11 1013.6 - 0.0 - - - - - - -
24/11:00pm 25.0 ESE 11 14 1013.7 - 0.0 - - - - - - -
24/10:30pm 25.0 ESE 11 13 1013.8 - 0.0 - - - - - - -
24/10:00pm 25.4 ESE 11 15 1013.9 - 0.0 - - - - - - -
24/09:30pm 25.1 SE 10 14 1014.0 - 0.0 - - - - - - -
24/09:00pm 24.5 SE 10 13 1014.0 - 0.0 - - - - - - -
24/08:30pm 24.5 ESE 10 13 1013.9 - 0.0 - - - - - - -
24/08:00pm 24.8 ESE 10 15 1013.7 - 0.0 - - - - - - -
24/07:30pm 25.5 ESE 13 18 1013.4 - 0.0 - - - - - - -
24/07:00pm 25.9 ESE 13 17 1013.1 - 0.0 - - - - - - -
24/06:30pm 26.5 ESE 14 18 1012.7 - 0.0 - - - - - - -
24/06:00pm 27.4 ESE 13 16 1012.4 - 0.0 - - - - - - -
24/05:30pm 28.2 ESE 15 19 1012.2 - 0.0 - - - - - - -
24/05:00pm 28.9 ESE 16 21 1011.9 - 0.0 - - - - - - -
24/04:30pm 29.6 E 17 22 1011.9 - 0.0 - - - - - - -
24/04:00pm 29.4 E 16 22 1011.7 - 0.0 - - - - - - -
24/03:30pm 29.5 E 17 23 1011.7 - 0.0 - - - - - - -
24/03:00pm 30.0 E 18 25 1011.7 - 0.0 - - - - - - -
24/02:30pm 30.2 E 16 25 1011.7 - 0.0 - - - - - - -
24/02:00pm 29.3 E 18 25 1011.7 - 0.0 - - - - - - -
24/01:30pm 29.9 ESE 18 25 1011.9 - 0.0 - - - - - - -
24/01:00pm 29.3 E 16 23 1012.2 - 0.0 - - - - - - -
24/12:30pm 28.4 E 18 25 1012.7 - 0.0 - - - - - - -
24/12:00pm 27.6 E 18 23 1012.9 - 0.0 - - - - - - -
24/11:30am 26.6 ESE 18 25 1013.4 - 0.0 - - - - - - -
24/11:00am 26.9 ESE 18 23 1013.6 - 0.0 - - - - - - -
24/10:39am 25.9 ESE 17 28 1013.9 - 0.0 - - - - - - -
24/10:30am 26.0 ESE 19 26 1014.0 - 0.0 - - - - - - -
24/10:00am 24.4 ESE 20 26 1014.3 - 0.0 - - - - - - -
24/09:30am 23.4 ESE 19 25 1014.5 - 0.0 - - - - - - -
24/09:00am 23.6 ESE 19 26 1014.5 - 0.0 - - - - - - -
24/08:30am 23.3 ESE 19 27 1014.4 - 0.0 - - - - - - -
24/08:00am 22.7 ESE 20 26 1014.2 - 0.0 - - - - - - -
24/07:30am 21.6 ESE 18 23 1013.9 - 0.0 - - - - - - -
24/07:00am 21.4 ESE 17 23 1013.5 - 0.0 - - - - - - -
24/06:30am 21.2 ESE 17 21 1013.3 - 0.0 - - - - - - -
24/06:00am 21.1 ESE 14 19 1013.1 - 0.0 - - - - - - -
24/05:30am 21.4 ESE 15 19 1013.0 - 0.0 - - - - - - -
24/05:00am 21.9 ESE 17 20 1012.9 - 0.0 - - - - - - -
24/04:30am 22.1 ESE 16 21 1012.9 - 0.0 - - - - - - -
24/04:00am 22.3 ESE 14 21 1012.9 - 0.0 - - - - - - -
24/03:30am 22.4 ESE 13 17 1012.9 - 0.0 - - - - - - -
24/03:00am 22.6 ESE 14 17 1013.0 - 0.0 - - - - - - -
24/02:30am 22.8 ESE 11 14 1013.1 - 0.0 - - - - - - -
24/02:00am 23.0 ESE 12 15 1013.1 - 0.0 - - - - - - -
24/01:30am 22.7 ESE 9 11 1013.2 - 0.0 - - - - - - -
24/01:00am 22.4 E 8 10 1013.3 - 0.0 - - - - - - -
24/12:30am 22.4 E 7 9 1013.4 - 0.0 - - - - - - -
24/12:00am 22.6 E 7 8 1013.5 - 0.0 - - - - - - -
 
Date/Time
WST
Temp

°C
Wind Pressure Rain
since 9am
mm
Weather Cloud Vis
km
Sea
Height
m
Swell
Dir
 
Speed
knots
Gust
knots
hPa Trend Height
m
Period
s
Dir
23/11:30pm 22.7 E 7 8 1013.4 - 0.0 - - - - - - -
23/11:00pm 22.6 E 6 7 1013.5 - 0.0 - - - - - - -
23/10:30pm 22.8 E 5 7 1013.6 - 0.0 - - - - - - -
23/10:00pm 22.7 E 4 5 1013.7 - 0.0 - - - - - - -
23/09:30pm 22.8 E 5 6 1013.4 - 0.0 - - - - - - -
23/09:00pm 23.1 ESE 4 5 1013.1 - 0.0 - - - - - - -
23/08:30pm 23.4 ENE 7 9 1013.1 - 0.0 - - - - - - -
23/08:00pm 23.6 ENE 7 9 1012.9 - 0.0 - - - - - - -
23/07:30pm 23.7 ENE 9 11 1012.4 - 0.0 - - - - - - -
23/07:00pm 24.6 E 9 14 1012.0 - 0.0 - - - - - - -
23/06:30pm 25.7 ESE 9 12 1011.7 - 0.0 - - - - - - -
23/06:00pm 25.9 ESE 10 14 1011.4 - 0.0 - - - - - - -
23/05:30pm 26.2 ESE 13 17 1011.2 - 0.0 - - - - - - -
23/05:00pm 26.7 E 15 19 1011.0 - 0.0 - - - - - - -
23/04:30pm 27.7 E 15 21 1010.8 - 0.0 - - - - - - -
23/04:00pm 27.9 E 15 18 1010.8 - 0.0 - - - - - - -
23/03:30pm 27.6 E 16 19 1010.8 - 0.0 - - - - - - -
23/03:00pm 27.9 E 15 20 1011.0 - 0.0 - - - - - - -
23/02:30pm 27.3 E 16 21 1010.9 - 0.0 - - - - - - -
23/02:00pm 27.2 E 15 22 1011.0 - 0.0 - - - - - - -
23/01:30pm 27.3 E 15 19 1011.2 - 0.0 - - - - - - -
23/01:00pm 27.2 E 14 19 1011.4 - 0.0 - - - - - - -
23/12:30pm 26.4 E 16 21 1011.7 - 0.0 - - - - - - -
23/12:00pm 26.1 E 16 21 1012.1 - 0.0 - - - - - - -
23/11:30am 25.4 ESE 17 23 1012.4 - 0.0 - - - - - - -
23/11:00am 24.5 ESE 18 23 1013.1 - 0.0 - - - - - - -
23/10:30am 24.0 ESE 19 24 1013.2 - 0.0 - - - - - - -
23/10:00am 23.2 ESE 17 22 1013.4 - 0.0 - - - - - - -
23/09:30am 22.1 ESE 20 25 1013.6 - 0.0 - - - - - - -
23/09:00am 21.0 ESE 18 23 1013.8 - 6.2 - - - - - - -
23/08:30am 20.3 ESE 17 23 1013.7 - 6.2 - - - - - - -
23/08:00am 19.2 ESE 18 23 1013.5 - 6.2 - - - - - - -
23/07:30am 18.6 ESE 13 17 1013.3 - 6.2 - - - - - - -
23/07:00am 17.3 ESE 10 12 1013.3 - 6.2 - - - - - - -
23/06:30am 16.7 ESE 9 11 1013.0 - 6.2 - - - - - - -
23/06:00am 17.3 ESE 11 14 1012.8 - 6.2 - - - - - - -
23/05:30am 17.9 ESE 11 14 1012.3 - 6.2 - - - - - - -
23/05:00am 17.9 ESE 11 14 1011.9 - 6.2 - - - - - - -
23/04:30am 18.0 ESE 11 16 1011.9 - 6.2 - - - - - - -
23/04:00am 18.0 SE 9 13 1011.8 - 6.2 - - - - - - -
23/03:30am 18.1 SE 10 13 1011.5 - 6.2 - - - - - - -
23/03:00am 18.2 SE 11 15 1011.8 - 6.2 - - - - - - -
23/02:30am 18.1 SE 11 15 1011.9 - 6.2 - - - - - - -
23/02:00am 18.1 SE 11 14 1011.8 - 6.2 - - - - - - -
23/01:30am 18.0 SE 11 16 1011.8 - 6.2 - - - - - - -
23/01:00am 18.1 SE 12 17 1011.9 - 6.2 - - - - - - -
23/12:30am 17.9 SE 11 14 1012.2 - 6.2 - - - - - - -
23/12:00am 18.0 SE 15 19 1012.3 - 6.2 - - - - - - -
 
Date/Time
WST
Temp

°C
Wind Pressure Rain
since 9am
mm
Weather Cloud Vis
km
Sea
Height
m
Swell
Dir
 
Speed
knots
Gust
knots
hPa Trend Height
m
Period
s
Dir
22/11:30pm 18.2 SE 13 18 1012.5 - 6.2 - - - - - - -
22/11:00pm 18.3 SE 12 16 1012.7 - 6.2 - - - - - - -
22/10:30pm 18.4 SE 12 17 1013.0 - 6.2 - - - - - - -
22/10:00pm 18.5 SE 13 16 1013.0 - 6.2 - - - - - - -
22/09:30pm 18.4 SE 11 14 1013.0 - 6.2 - - - - - - -
22/09:00pm 18.5 SE 12 16 1012.9 - 6.2 - - - - - - -
22/08:30pm 18.8 SE 11 16 1013.0 - 6.2 - - - - - - -
22/08:00pm 18.9 SE 13 19 1012.7 - 6.2 - - - - - - -
22/07:30pm 19.0 SE 13 16 1012.6 - 6.2 - - - - - - -
22/07:00pm 19.5 SE 13 17 1012.0 - 6.2 - - - - - - -
22/06:30pm 19.8 SE 16 22 1011.8 - 6.2 - - - - - - -
22/06:00pm 20.2 ESE 15 20 1011.3 - 6.2 - - - - - - -
22/05:30pm 20.7 SE 17 22 1011.0 - 6.2 - - - - - - -
22/05:00pm 21.2 SE 14 21 1010.7 - 6.2 - - - - - - -
22/04:30pm 21.4 SE 16 23 1010.4 - 6.2 - - - - - - -
22/04:00pm 21.7 SE 16 21 1010.0 - 6.2 - - - - - - -
22/03:30pm 21.9 SE 17 23 1009.9 - 6.2 - - - - - - -
22/03:00pm 21.9 SE 16 22 1010.1 - 6.2 - - - - - - -

Other Formats:

Comma delimited format used in spreadsheet applications
http://www.bom.gov.au/fwo/IDW60701/IDW60701.94308.axf

JavaScript Object Notation format (JSON) in row-major order
http://www.bom.gov.au/fwo/IDW60701/IDW60701.94308.json